createdAt,value
2022-12-26T00:00:27.741Z,9.92
2022-12-26T00:01:27.719Z,9.92
2022-12-26T00:02:27.792Z,10.04
2022-12-26T00:03:27.763Z,9.98
2022-12-26T00:04:50.023Z,9.97
2022-12-26T00:05:28.655Z,9.99
2022-12-26T00:06:27.675Z,9.95
2022-12-26T00:07:27.634Z,9.95
2022-12-26T00:08:27.639Z,10.01
2022-12-26T00:09:27.625Z,10.01
2022-12-26T00:10:27.611Z,10.01
2022-12-26T00:11:27.642Z,10.05
2022-12-26T00:12:27.596Z,9.98
2022-12-26T00:13:39.621Z,10.01
2022-12-26T00:14:28.661Z,10.04
2022-12-26T00:15:27.571Z,10.01
2022-12-26T00:16:27.658Z,9.99
2022-12-26T00:17:27.572Z,10.10
2022-12-26T00:18:27.560Z,10.04
2022-12-26T00:19:27.551Z,10.05
2022-12-26T00:20:27.534Z,10.05
2022-12-26T00:21:27.554Z,10.13
2022-12-26T00:22:27.520Z,10.10
2022-12-26T00:23:27.510Z,10.05
2022-12-26T00:24:27.570Z,10.01
2022-12-26T00:25:27.523Z,9.95
2022-12-26T00:26:27.486Z,9.99
2022-12-26T00:27:27.527Z,9.97
2022-12-26T00:28:27.498Z,9.99
2022-12-26T00:29:27.508Z,9.99
2022-12-26T00:30:27.464Z,10.09
2022-12-26T00:31:27.526Z,9.98
2022-12-26T00:32:27.469Z,9.95
2022-12-26T00:33:27.437Z,9.98
2022-12-26T00:34:28.433Z,9.95
2022-12-26T00:35:27.431Z,9.98
2022-12-26T00:36:27.474Z,9.97
2022-12-26T00:37:27.444Z,10.05
2022-12-26T00:38:27.399Z,10.02
2022-12-26T00:39:27.443Z,9.95
2022-12-26T00:40:27.398Z,9.99
2022-12-26T00:41:27.401Z,9.94
2022-12-26T00:42:27.400Z,10.05
2022-12-26T00:43:27.388Z,9.95
2022-12-26T00:44:27.360Z,9.97
2022-12-26T00:45:27.352Z,9.97
2022-12-26T00:46:27.417Z,9.97
2022-12-26T00:47:27.356Z,9.95
2022-12-26T00:48:27.331Z,9.89
2022-12-26T00:49:28.256Z,9.98
2022-12-26T00:50:34.214Z,9.91
2022-12-26T00:51:29.303Z,9.99
2022-12-26T00:52:27.329Z,9.99
2022-12-26T00:53:27.290Z,9.94
2022-12-26T00:54:27.348Z,9.94
2022-12-26T00:55:27.275Z,9.97
2022-12-26T00:56:27.261Z,9.97
2022-12-26T00:57:28.293Z,9.95
2022-12-26T00:58:27.258Z,9.91
2022-12-26T00:59:27.295Z,10.01
2022-12-26T01:00:27.232Z,10.10
2022-12-26T01:01:27.307Z,10.07
2022-12-26T01:02:27.361Z,10.01
2022-12-26T01:03:27.244Z,9.97
2022-12-26T01:04:27.332Z,10.05
2022-12-26T01:05:27.225Z,9.97
2022-12-26T01:06:27.194Z,10.02
2022-12-26T01:07:27.236Z,10.09
2022-12-26T01:08:27.169Z,10.12
2022-12-26T01:09:27.257Z,10.12
2022-12-26T01:10:27.169Z,10.20
2022-12-26T01:11:27.158Z,10.17
2022-12-26T01:12:27.171Z,10.26
2022-12-26T01:13:27.126Z,10.26
2022-12-26T01:14:27.357Z,10.25
2022-12-26T01:15:27.118Z,10.25
2022-12-26T01:16:27.138Z,10.28
2022-12-26T01:17:27.153Z,10.26
2022-12-26T01:18:27.108Z,10.17
2022-12-26T01:19:28.087Z,10.26
2022-12-26T01:20:27.099Z,10.35
2022-12-26T01:21:27.070Z,10.31
2022-12-26T01:22:27.066Z,10.28
2022-12-26T01:23:27.083Z,10.30
2022-12-26T01:24:27.079Z,10.26
2022-12-26T01:25:27.061Z,10.26
2022-12-26T01:26:28.047Z,10.35
2022-12-26T01:27:27.028Z,10.31
2022-12-26T01:28:27.058Z,10.40
2022-12-26T01:29:27.020Z,10.41
2022-12-26T01:30:27.016Z,10.35
2022-12-26T01:31:27.061Z,10.56
2022-12-26T01:32:26.977Z,10.48
2022-12-26T01:33:28.008Z,10.46
2022-12-26T01:34:26.977Z,10.42
2022-12-26T01:35:26.968Z,10.42
2022-12-26T01:36:26.963Z,10.46
2022-12-26T01:37:26.951Z,10.38
2022-12-26T01:38:26.998Z,10.53
2022-12-26T01:39:26.948Z,10.48
2022-12-26T01:40:26.943Z,10.48
2022-12-26T01:41:26.939Z,10.48
2022-12-26T01:42:26.923Z,10.49
2022-12-26T01:43:26.941Z,10.54
2022-12-26T01:44:26.916Z,10.53
2022-12-26T01:45:26.925Z,10.46
2022-12-26T01:46:26.950Z,10.46
2022-12-26T01:47:26.872Z,10.44
2022-12-26T01:48:27.901Z,10.44
2022-12-26T01:49:26.895Z,10.44
2022-12-26T01:50:26.853Z,10.40
2022-12-26T01:51:26.978Z,10.44
2022-12-26T01:52:26.846Z,10.46
2022-12-26T01:53:26.859Z,10.41
2022-12-26T01:54:39.201Z,10.42
2022-12-26T01:55:27.820Z,10.37
2022-12-26T01:56:26.811Z,10.56
2022-12-26T01:57:26.805Z,10.51
2022-12-26T01:58:26.820Z,10.46
2022-12-26T01:59:26.805Z,10.53
2022-12-26T02:00:26.773Z,10.49
2022-12-26T02:01:26.840Z,10.42
2022-12-26T02:02:26.917Z,10.46
2022-12-26T02:03:27.915Z,10.49
2022-12-26T02:04:26.758Z,10.56
2022-12-26T02:05:26.748Z,10.48
2022-12-26T02:06:26.745Z,10.57
2022-12-26T02:07:26.745Z,10.56
2022-12-26T02:08:26.758Z,10.54
2022-12-26T02:09:26.732Z,10.59
2022-12-26T02:10:26.706Z,10.53
2022-12-26T02:11:26.703Z,10.44
2022-12-26T02:12:35.259Z,10.59
2022-12-26T02:13:27.708Z,10.49
2022-12-26T02:14:26.721Z,10.59
2022-12-26T02:15:26.684Z,10.57
2022-12-26T02:16:26.676Z,10.54
2022-12-26T02:17:26.656Z,10.57
2022-12-26T02:18:26.647Z,10.60
2022-12-26T02:19:26.686Z,10.57
2022-12-26T02:20:26.643Z,10.57
2022-12-26T02:21:26.625Z,10.54
2022-12-26T02:22:26.622Z,10.56
2022-12-26T02:23:26.615Z,10.56
2022-12-26T02:24:26.635Z,10.63
2022-12-26T02:25:26.612Z,10.63
2022-12-26T02:26:26.606Z,10.56
2022-12-26T02:27:26.586Z,10.61
2022-12-26T02:28:26.580Z,10.57
2022-12-26T02:29:26.641Z,10.41
2022-12-26T02:30:26.558Z,10.60
2022-12-26T02:31:26.615Z,10.57
2022-12-26T02:32:27.545Z,10.63
2022-12-26T02:33:26.548Z,10.67
2022-12-26T02:34:26.557Z,10.54
2022-12-26T02:35:26.520Z,10.48
2022-12-26T02:36:26.510Z,10.53
2022-12-26T02:37:26.510Z,10.56
2022-12-26T02:38:26.523Z,10.57
2022-12-26T02:39:45.702Z,10.56
2022-12-26T02:40:27.484Z,10.60
2022-12-26T02:41:26.474Z,10.56
2022-12-26T02:42:26.491Z,10.63
2022-12-26T02:43:26.472Z,10.56
2022-12-26T02:44:26.475Z,10.57
2022-12-26T02:45:26.468Z,10.59
2022-12-26T02:46:26.490Z,10.51
2022-12-26T02:47:26.442Z,10.67
2022-12-26T02:48:26.454Z,10.59
2022-12-26T02:49:26.420Z,10.56
2022-12-26T02:50:26.421Z,10.61
2022-12-26T02:51:26.403Z,10.57
2022-12-26T02:52:26.388Z,10.57
2022-12-26T02:53:26.420Z,10.48
2022-12-26T02:54:26.375Z,10.54
2022-12-26T02:55:26.369Z,10.56
2022-12-26T02:56:26.371Z,10.46
2022-12-26T02:57:26.347Z,10.56
2022-12-26T02:58:26.384Z,10.59
2022-12-26T02:59:56.490Z,10.56
2022-12-26T03:00:27.317Z,10.57
2022-12-26T03:01:26.401Z,10.64
2022-12-26T03:02:26.494Z,10.56
2022-12-26T03:03:26.380Z,10.60
2022-12-26T03:04:26.311Z,10.56
2022-12-26T03:05:26.298Z,10.49
2022-12-26T03:06:26.289Z,10.42
2022-12-26T03:07:26.273Z,10.49
2022-12-26T03:08:26.270Z,10.60
2022-12-26T03:09:26.300Z,10.61
2022-12-26T03:10:26.255Z,10.56
2022-12-26T03:11:26.255Z,10.54
2022-12-26T03:12:26.253Z,10.49
2022-12-26T03:13:26.239Z,10.51
2022-12-26T03:14:26.250Z,10.57
2022-12-26T03:15:26.220Z,10.57
2022-12-26T03:16:26.251Z,10.56
2022-12-26T03:17:26.215Z,10.57
2022-12-26T03:18:57.704Z,10.60
2022-12-26T03:19:27.226Z,10.61
2022-12-26T03:20:26.176Z,10.60
2022-12-26T03:21:26.175Z,10.60
2022-12-26T03:22:26.171Z,10.57
2022-12-26T03:23:26.166Z,10.57
2022-12-26T03:24:26.179Z,10.57
2022-12-26T03:25:26.142Z,10.57
2022-12-26T03:26:26.178Z,10.61
2022-12-26T03:27:26.136Z,10.56
2022-12-26T03:28:26.119Z,10.53
2022-12-26T03:29:26.153Z,10.54
2022-12-26T03:30:26.142Z,10.57
2022-12-26T03:31:26.093Z,10.67
2022-12-26T03:32:26.092Z,10.60
2022-12-26T03:33:26.086Z,10.57
2022-12-26T03:34:26.118Z,10.67
2022-12-26T03:35:26.067Z,10.53
2022-12-26T03:36:26.066Z,10.67
2022-12-26T03:37:26.056Z,10.69
2022-12-26T03:38:27.053Z,10.67
2022-12-26T03:39:26.085Z,10.75
2022-12-26T03:40:26.039Z,10.68
2022-12-26T03:41:26.017Z,10.68
2022-12-26T03:42:26.018Z,10.74
2022-12-26T03:43:26.019Z,10.64
2022-12-26T03:44:26.059Z,10.75
2022-12-26T03:45:26.011Z,10.79
2022-12-26T03:46:26.057Z,10.81
2022-12-26T03:47:25.995Z,10.78
2022-12-26T03:48:25.977Z,10.74
2022-12-26T03:49:25.966Z,10.74
2022-12-26T03:50:25.983Z,10.71
2022-12-26T03:51:25.950Z,10.69
2022-12-26T03:52:25.948Z,10.76
2022-12-26T03:53:25.956Z,10.76
2022-12-26T03:54:25.926Z,10.81
2022-12-26T03:55:25.973Z,10.87
2022-12-26T03:56:25.902Z,10.81
2022-12-26T03:57:25.901Z,10.81
2022-12-26T03:58:25.888Z,10.76
2022-12-26T03:59:25.929Z,10.79
2022-12-26T04:00:59.400Z,10.74
2022-12-26T04:01:26.004Z,10.71
2022-12-26T04:02:26.007Z,10.74
2022-12-26T04:03:25.876Z,10.69
2022-12-26T04:04:25.851Z,10.68
2022-12-26T04:05:25.894Z,10.81
2022-12-26T04:06:25.848Z,10.78
2022-12-26T04:07:25.858Z,10.86
2022-12-26T04:08:25.844Z,10.79
2022-12-26T04:09:25.818Z,10.90
2022-12-26T04:10:25.839Z,10.79
2022-12-26T04:11:25.866Z,10.87
2022-12-26T04:12:25.810Z,10.86
2022-12-26T04:13:25.806Z,10.86
2022-12-26T04:14:25.808Z,10.78
2022-12-26T04:15:25.872Z,10.82
2022-12-26T04:16:25.797Z,10.84
2022-12-26T04:17:25.757Z,10.84
2022-12-26T04:18:25.755Z,10.79
2022-12-26T04:19:25.770Z,10.84
2022-12-26T04:20:25.793Z,10.92
2022-12-26T04:21:25.732Z,10.79
2022-12-26T04:22:25.736Z,10.82
2022-12-26T04:23:25.731Z,10.76
2022-12-26T04:24:25.716Z,10.90
2022-12-26T04:25:50.519Z,10.78
2022-12-26T04:26:26.702Z,10.76
2022-12-26T04:27:25.692Z,10.84
2022-12-26T04:28:25.706Z,10.79
2022-12-26T04:29:25.689Z,10.81
2022-12-26T04:30:25.692Z,10.79
2022-12-26T04:31:25.740Z,10.81
2022-12-26T04:32:25.671Z,10.89
2022-12-26T04:33:25.649Z,10.74
2022-12-26T04:34:25.684Z,10.68
2022-12-26T04:35:25.673Z,10.78
2022-12-26T04:36:25.627Z,10.86
2022-12-26T04:37:25.629Z,10.75
2022-12-26T04:38:25.611Z,10.81
2022-12-26T04:39:25.626Z,10.78
2022-12-26T04:40:25.634Z,10.89
2022-12-26T04:41:25.615Z,10.82
2022-12-26T04:42:25.580Z,10.89
2022-12-26T04:43:47.225Z,10.84
2022-12-26T04:44:26.580Z,10.90
2022-12-26T04:45:25.579Z,10.79
2022-12-26T04:46:25.614Z,10.94
2022-12-26T04:47:25.573Z,10.90
2022-12-26T04:48:25.539Z,10.79
2022-12-26T04:49:25.528Z,10.82
2022-12-26T04:50:25.524Z,10.93
2022-12-26T04:51:25.544Z,10.84
2022-12-26T04:52:25.511Z,10.82
2022-12-26T04:53:25.530Z,10.87
2022-12-26T04:54:25.496Z,10.82
2022-12-26T04:55:25.497Z,10.81
2022-12-26T04:56:25.509Z,10.78
2022-12-26T04:57:25.477Z,10.78
2022-12-26T04:58:25.467Z,10.90
2022-12-26T04:59:25.459Z,10.75
2022-12-26T05:00:25.460Z,10.81
2022-12-26T05:01:25.567Z,10.90
2022-12-26T05:02:25.631Z,10.81
2022-12-26T05:03:25.441Z,10.71
2022-12-26T05:04:25.414Z,10.59
2022-12-26T05:05:25.422Z,10.63
2022-12-26T05:06:25.446Z,10.59
2022-12-26T05:07:25.409Z,10.60
2022-12-26T05:08:25.393Z,10.61
2022-12-26T05:09:25.383Z,10.59
2022-12-26T05:10:25.371Z,10.67
2022-12-26T05:11:25.414Z,10.64
2022-12-26T05:12:25.372Z,10.61
2022-12-26T05:13:25.367Z,10.57
2022-12-26T05:14:25.325Z,10.60
2022-12-26T05:15:25.326Z,10.64
2022-12-26T05:16:25.420Z,10.63
2022-12-26T05:17:25.309Z,10.64
2022-12-26T05:18:25.315Z,10.61
2022-12-26T05:19:25.315Z,10.63
2022-12-26T05:20:25.295Z,10.61
2022-12-26T05:21:25.290Z,10.56
2022-12-26T05:22:25.305Z,10.71
2022-12-26T05:23:25.290Z,10.60
2022-12-26T05:24:25.325Z,10.57
2022-12-26T05:25:25.253Z,10.48
2022-12-26T05:26:25.240Z,10.57
2022-12-26T05:27:25.284Z,10.56
2022-12-26T05:28:25.215Z,10.49
2022-12-26T05:29:25.209Z,10.59
2022-12-26T05:30:25.222Z,10.49
2022-12-26T05:31:29.733Z,10.53
2022-12-26T05:32:26.223Z,10.48
2022-12-26T05:33:25.195Z,10.53
2022-12-26T05:34:25.195Z,10.54
2022-12-26T05:35:25.188Z,10.57
2022-12-26T05:36:25.193Z,10.46
2022-12-26T05:37:25.196Z,10.54
2022-12-26T05:38:25.163Z,10.41
2022-12-26T05:39:26.160Z,10.51
2022-12-26T05:40:25.147Z,10.60
2022-12-26T05:41:25.145Z,10.44
2022-12-26T05:42:25.171Z,10.60
2022-12-26T05:43:25.165Z,10.56
2022-12-26T05:44:25.127Z,10.46
2022-12-26T05:45:25.106Z,10.46
2022-12-26T05:46:25.164Z,10.53
2022-12-26T05:47:25.120Z,10.56
2022-12-26T05:48:25.064Z,10.41
2022-12-26T05:49:25.079Z,10.41
2022-12-26T05:50:25.097Z,10.51
2022-12-26T05:51:25.041Z,10.54
2022-12-26T05:52:25.082Z,10.40
2022-12-26T05:53:25.080Z,10.49
2022-12-26T05:54:25.029Z,10.41
2022-12-26T05:55:25.029Z,10.46
2022-12-26T05:56:25.025Z,10.42
2022-12-26T05:57:25.070Z,10.53
2022-12-26T05:58:25.018Z,10.49
2022-12-26T05:59:24.995Z,10.49
2022-12-26T06:00:24.983Z,10.51
2022-12-26T06:01:25.003Z,10.53
2022-12-26T06:02:25.063Z,10.48
2022-12-26T06:03:24.975Z,10.42
2022-12-26T06:04:24.952Z,10.46
2022-12-26T06:05:24.946Z,10.44
2022-12-26T06:06:24.955Z,10.46
2022-12-26T06:07:24.946Z,10.42
2022-12-26T06:08:24.957Z,10.48
2022-12-26T06:09:24.954Z,10.51
2022-12-26T06:10:24.903Z,10.49
2022-12-26T06:11:24.905Z,10.44
2022-12-26T06:12:24.888Z,10.54
2022-12-26T06:13:24.929Z,10.59
2022-12-26T06:14:24.867Z,10.48
2022-12-26T06:15:24.888Z,10.53
2022-12-26T06:16:25.055Z,10.48
2022-12-26T06:17:24.836Z,10.46
2022-12-26T06:18:25.869Z,10.56
2022-12-26T06:19:24.841Z,10.48
2022-12-26T06:20:24.821Z,10.59
2022-12-26T06:21:24.804Z,10.57
2022-12-26T06:22:24.826Z,10.56
2022-12-26T06:23:24.831Z,10.49
2022-12-26T06:24:24.800Z,10.46
2022-12-26T06:25:24.780Z,10.56
2022-12-26T06:26:24.781Z,10.53
2022-12-26T06:27:24.787Z,10.53
2022-12-26T06:28:24.817Z,10.49
2022-12-26T06:29:24.760Z,10.61
2022-12-26T06:30:24.733Z,10.46
2022-12-26T06:31:24.840Z,10.57
2022-12-26T06:32:24.730Z,10.57
2022-12-26T06:33:24.738Z,10.38
2022-12-26T06:34:24.701Z,10.60
2022-12-26T06:35:24.713Z,10.44
2022-12-26T06:36:24.701Z,10.57
2022-12-26T06:37:24.680Z,10.56
2022-12-26T06:38:24.707Z,10.56
2022-12-26T06:39:24.691Z,10.54
2022-12-26T06:40:24.669Z,10.46
2022-12-26T06:41:24.650Z,10.54
2022-12-26T06:42:24.662Z,10.61
2022-12-26T06:43:24.657Z,10.48
2022-12-26T06:44:24.648Z,10.57
2022-12-26T06:45:24.619Z,10.59
2022-12-26T06:46:24.655Z,10.56
2022-12-26T06:47:24.605Z,10.59
2022-12-26T06:48:25.540Z,10.56
2022-12-26T06:49:30.424Z,10.59
2022-12-26T06:50:26.600Z,10.57
2022-12-26T06:51:24.582Z,10.54
2022-12-26T06:52:24.592Z,10.51
2022-12-26T06:53:24.605Z,10.59
2022-12-26T06:54:24.567Z,10.59
2022-12-26T06:55:24.551Z,10.61
2022-12-26T06:56:24.549Z,10.57
2022-12-26T06:57:24.543Z,10.56
2022-12-26T06:58:24.561Z,10.56
2022-12-26T06:59:24.525Z,10.54
2022-12-26T07:00:24.629Z,10.56
2022-12-26T07:01:24.637Z,10.59
2022-12-26T07:02:24.627Z,10.54
2022-12-26T07:03:24.527Z,10.56
2022-12-26T07:04:24.488Z,10.56
2022-12-26T07:05:24.503Z,10.67
2022-12-26T07:06:24.486Z,10.56
2022-12-26T07:07:24.464Z,10.60
2022-12-26T07:08:24.461Z,10.57
2022-12-26T07:09:29.812Z,10.57
2022-12-26T07:10:26.443Z,10.48
2022-12-26T07:11:24.445Z,10.48
2022-12-26T07:12:24.410Z,10.53
2022-12-26T07:13:24.404Z,10.64
2022-12-26T07:14:24.442Z,10.59
2022-12-26T07:15:24.424Z,10.51
2022-12-26T07:16:24.477Z,10.51
2022-12-26T07:17:24.389Z,10.51
2022-12-26T07:18:24.398Z,10.67
2022-12-26T07:19:25.393Z,10.67
2022-12-26T07:20:24.393Z,10.57
2022-12-26T07:21:24.377Z,10.78
2022-12-26T07:22:24.361Z,10.68
2022-12-26T07:23:24.391Z,10.76
2022-12-26T07:24:24.381Z,10.75
2022-12-26T07:25:24.328Z,10.75
2022-12-26T07:26:24.309Z,10.74
2022-12-26T07:27:24.300Z,10.74
2022-12-26T07:28:24.311Z,10.71
2022-12-26T07:29:24.332Z,10.78
2022-12-26T07:30:24.339Z,10.72
2022-12-26T07:31:24.324Z,10.79
2022-12-26T07:32:24.269Z,10.69
2022-12-26T07:33:24.277Z,10.64
2022-12-26T07:34:31.081Z,10.69
2022-12-26T07:35:26.257Z,10.60
2022-12-26T07:36:24.239Z,10.60
2022-12-26T07:37:24.243Z,10.67
2022-12-26T07:38:24.234Z,10.60
2022-12-26T07:39:24.259Z,10.60
2022-12-26T07:40:24.238Z,10.56
2022-12-26T07:41:24.232Z,10.53
2022-12-26T07:42:24.202Z,10.53
2022-12-26T07:43:24.186Z,10.56
2022-12-26T07:44:24.228Z,10.60
2022-12-26T07:45:24.291Z,10.61
2022-12-26T07:46:24.226Z,10.57
2022-12-26T07:47:24.156Z,10.60
2022-12-26T07:48:24.175Z,10.57
2022-12-26T07:49:24.166Z,10.57
2022-12-26T07:50:24.142Z,10.56
2022-12-26T07:51:24.132Z,10.61
2022-12-26T07:52:24.130Z,10.60
2022-12-26T07:53:24.126Z,10.54
2022-12-26T07:54:24.132Z,10.57
2022-12-26T07:55:24.109Z,10.59
2022-12-26T07:56:24.152Z,10.53
2022-12-26T07:57:48.271Z,10.40
2022-12-26T07:58:26.091Z,10.57
2022-12-26T07:59:24.114Z,10.49
2022-12-26T08:00:24.107Z,10.46
2022-12-26T08:01:24.176Z,10.57
2022-12-26T08:02:24.431Z,10.42
2022-12-26T08:03:24.202Z,10.37
2022-12-26T08:04:24.056Z,10.41
2022-12-26T08:05:24.019Z,10.37
2022-12-26T08:06:24.027Z,10.42
2022-12-26T08:07:24.030Z,10.46
2022-12-26T08:08:23.995Z,10.42
2022-12-26T08:09:24.023Z,10.41
2022-12-26T08:10:23.990Z,10.37
2022-12-26T08:11:23.979Z,10.34
2022-12-26T08:12:23.986Z,10.41
2022-12-26T08:13:23.972Z,10.40
2022-12-26T08:14:24.005Z,10.34
2022-12-26T08:15:23.946Z,10.42
2022-12-26T08:16:23.975Z,10.40
2022-12-26T08:17:23.948Z,10.37
2022-12-26T08:18:23.936Z,10.31
2022-12-26T08:19:23.919Z,10.46
2022-12-26T08:20:23.986Z,10.46
2022-12-26T08:21:23.932Z,10.44
2022-12-26T08:22:23.911Z,10.46
2022-12-26T08:23:23.881Z,10.44
2022-12-26T08:24:23.891Z,10.53
2022-12-26T08:25:23.923Z,10.48
2022-12-26T08:26:23.867Z,10.46
2022-12-26T08:27:23.867Z,10.46
2022-12-26T08:28:23.892Z,10.44
2022-12-26T08:29:23.871Z,10.44
2022-12-26T08:30:23.871Z,10.48
2022-12-26T08:32:23.823Z,10.53
2022-12-26T08:33:23.799Z,10.41
2022-12-26T08:34:23.819Z,10.53
2022-12-26T08:35:23.852Z,10.46
2022-12-26T08:36:23.793Z,10.56
2022-12-26T08:37:23.805Z,10.46
2022-12-26T08:38:27.209Z,10.48
2022-12-26T08:39:24.766Z,10.51
2022-12-26T08:40:41.894Z,10.53
2022-12-26T08:41:25.753Z,10.60
2022-12-26T08:42:23.742Z,10.60
2022-12-26T08:44:23.557Z,10.51
2022-12-26T08:44:27.541Z,10.53
2022-12-26T08:45:24.741Z,10.41
2022-12-26T08:46:23.717Z,10.41
2022-12-26T08:47:23.698Z,10.41
2022-12-26T08:48:23.697Z,10.48
2022-12-26T08:49:23.707Z,10.48
2022-12-26T08:50:23.711Z,10.57
2022-12-26T08:51:23.681Z,10.48
2022-12-26T08:52:23.654Z,10.53
2022-12-26T08:53:23.665Z,10.51
2022-12-26T08:54:23.643Z,10.53
2022-12-26T08:55:23.669Z,10.48
2022-12-26T08:56:23.638Z,10.49
2022-12-26T08:57:23.620Z,10.41
2022-12-26T08:58:23.641Z,10.56
2022-12-26T08:59:23.609Z,10.42
2022-12-26T09:00:23.826Z,10.42
2022-12-26T09:01:23.708Z,10.37
2022-12-26T09:02:23.705Z,10.48
2022-12-26T09:03:23.628Z,10.41
2022-12-26T09:04:23.570Z,10.19
2022-12-26T09:05:23.597Z,10.09
2022-12-26T09:06:23.577Z,9.94
2022-12-26T09:07:23.537Z,9.92
2022-12-26T09:08:23.538Z,9.79
2022-12-26T09:09:23.545Z,9.58
2022-12-26T09:10:23.564Z,9.61
2022-12-26T09:11:23.527Z,9.64
2022-12-26T09:12:23.494Z,9.59
2022-12-26T09:13:23.501Z,9.58
2022-12-26T09:14:23.480Z,9.48
2022-12-26T09:15:23.498Z,9.51
2022-12-26T09:16:23.542Z,9.59
2022-12-26T09:17:23.519Z,9.48
2022-12-26T09:18:23.459Z,9.58
2022-12-26T09:19:23.499Z,9.39
2022-12-26T09:20:23.464Z,9.47
2022-12-26T09:21:23.500Z,9.50
2022-12-26T09:22:23.449Z,9.41
2022-12-26T09:23:23.420Z,9.48
2022-12-26T09:24:23.421Z,9.40
2022-12-26T09:25:23.417Z,9.25
2022-12-26T09:26:23.422Z,9.47
2022-12-26T09:27:23.377Z,9.37
2022-12-26T09:28:24.400Z,9.44
2022-12-26T09:29:23.380Z,9.29
2022-12-26T09:30:23.477Z,9.37
2022-12-26T09:31:23.469Z,9.47
2022-12-26T09:32:23.375Z,9.41
2022-12-26T09:33:23.363Z,9.36
2022-12-26T09:34:23.348Z,9.32
2022-12-26T09:35:23.336Z,9.29
2022-12-26T09:36:23.355Z,9.21
2022-12-26T09:37:23.362Z,9.18
2022-12-26T09:38:23.310Z,9.18
2022-12-26T09:39:23.299Z,9.25
2022-12-26T09:40:23.332Z,9.11
2022-12-26T09:41:23.316Z,9.14
2022-12-26T09:42:23.289Z,9.08
2022-12-26T09:43:23.284Z,9.14
2022-12-26T09:44:23.269Z,9.11
2022-12-26T09:45:23.276Z,9.08
2022-12-26T09:46:23.404Z,9.08
2022-12-26T09:47:23.260Z,9.14
2022-12-26T09:48:23.244Z,9.03
2022-12-26T09:49:23.232Z,9.18
2022-12-26T09:50:23.298Z,9.02
2022-12-26T09:51:23.243Z,9.02
2022-12-26T09:52:24.196Z,9.11
2022-12-26T09:53:23.231Z,9.03
2022-12-26T09:54:23.196Z,9.02
2022-12-26T09:55:23.183Z,9.03
2022-12-26T09:57:25.180Z,9.04
2022-12-26T09:58:23.165Z,9.00
2022-12-26T09:59:23.173Z,9.08
2022-12-26T10:00:23.146Z,9.03
2022-12-26T10:01:57.045Z,9.02
2022-12-26T10:02:23.212Z,8.97
2022-12-26T10:03:23.104Z,8.97
2022-12-26T10:04:28.393Z,8.89
2022-12-26T10:05:25.105Z,8.94
2022-12-26T10:06:23.152Z,8.97
2022-12-26T10:07:23.086Z,8.95
2022-12-26T10:08:23.063Z,8.97
2022-12-26T10:09:23.063Z,9.00
2022-12-26T10:10:23.052Z,9.10
2022-12-26T10:11:23.161Z,8.97
2022-12-26T10:12:23.035Z,8.99
2022-12-26T10:13:23.023Z,9.06
2022-12-26T10:14:23.061Z,9.03
2022-12-26T10:15:23.014Z,8.94
2022-12-26T10:16:23.074Z,9.08
2022-12-26T10:17:22.996Z,9.11
2022-12-26T10:18:22.989Z,9.16
2022-12-26T10:19:26.133Z,9.10
2022-12-26T10:20:23.962Z,9.06
2022-12-26T10:21:22.962Z,9.08
2022-12-26T10:22:23.155Z,9.21
2022-12-26T10:23:22.948Z,9.22
2022-12-26T10:24:22.937Z,9.28
2022-12-26T10:25:22.962Z,9.21
2022-12-26T10:26:22.932Z,9.23
2022-12-26T10:27:23.202Z,9.31
2022-12-26T10:28:22.907Z,9.37
2022-12-26T10:29:22.915Z,9.44
2022-12-26T10:30:22.905Z,9.51
2022-12-26T10:31:22.934Z,9.51
2022-12-26T10:32:27.704Z,9.59
2022-12-26T10:33:24.867Z,9.73
2022-12-26T10:34:22.864Z,9.80
2022-12-26T10:35:22.848Z,9.94
2022-12-26T10:36:22.842Z,9.99
2022-12-26T10:37:22.866Z,9.97
2022-12-26T10:38:27.467Z,10.09
2022-12-26T10:39:24.819Z,9.98
2022-12-26T10:40:22.812Z,9.97
2022-12-26T10:41:22.805Z,10.10
2022-12-26T10:42:22.828Z,10.09
2022-12-26T10:43:22.933Z,10.10
2022-12-26T10:44:27.670Z,10.09
2022-12-26T10:45:24.769Z,10.22
2022-12-26T10:46:22.795Z,10.12
2022-12-26T10:47:22.783Z,10.01
2022-12-26T10:48:22.760Z,10.09
2022-12-26T10:49:22.750Z,10.09
2022-12-26T10:50:27.180Z,10.02
2022-12-26T10:51:24.730Z,10.09
2022-12-26T10:52:22.819Z,10.09
2022-12-26T10:53:22.754Z,10.10
2022-12-26T10:54:22.723Z,10.12
2022-12-26T10:55:29.302Z,10.23
2022-12-26T10:56:23.758Z,10.20
2022-12-26T10:57:22.706Z,10.16
2022-12-26T10:58:22.683Z,10.26
2022-12-26T10:59:22.709Z,10.13
2022-12-26T11:00:22.673Z,10.25
2022-12-26T11:01:22.735Z,10.30
2022-12-26T11:02:22.989Z,10.31
2022-12-26T11:03:22.722Z,10.40
2022-12-26T11:04:44.451Z,10.33
2022-12-26T11:05:56.904Z,10.33
2022-12-26T11:06:24.618Z,10.38
2022-12-26T11:07:22.652Z,10.42
2022-12-26T11:08:22.713Z,10.51
2022-12-26T11:09:22.673Z,10.34
2022-12-26T11:10:22.600Z,10.37
2022-12-26T11:11:22.592Z,10.35
2022-12-26T11:12:22.630Z,10.42
2022-12-26T11:13:22.567Z,10.31
2022-12-26T11:14:22.565Z,10.31
2022-12-26T11:15:22.560Z,10.35
2022-12-26T11:16:22.607Z,10.40
2022-12-26T11:17:22.543Z,10.33
2022-12-26T11:18:22.564Z,10.25
2022-12-26T11:19:22.526Z,10.22
2022-12-26T11:20:22.515Z,10.33
2022-12-26T11:21:22.519Z,10.34
2022-12-26T11:22:22.505Z,10.25
2022-12-26T11:23:22.704Z,10.10
2022-12-26T11:24:22.523Z,10.22
2022-12-26T11:25:22.482Z,10.22
2022-12-26T11:26:22.508Z,10.13
2022-12-26T11:27:22.472Z,10.20
2022-12-26T11:28:22.479Z,10.22
2022-12-26T11:29:22.469Z,10.16
2022-12-26T11:30:22.442Z,10.16
2022-12-26T11:31:22.476Z,10.07
2022-12-26T11:32:22.426Z,10.16
2022-12-26T11:33:22.455Z,10.09
2022-12-26T11:34:22.410Z,10.23
2022-12-26T11:35:22.401Z,9.99
2022-12-26T11:36:22.401Z,10.20
2022-12-26T11:37:22.386Z,10.17
2022-12-26T11:38:22.410Z,10.17
2022-12-26T11:39:22.370Z,10.13
2022-12-26T11:40:22.367Z,10.13
2022-12-26T11:41:22.353Z,10.17
2022-12-26T11:42:22.351Z,10.20
2022-12-26T11:43:22.364Z,10.19
2022-12-26T11:44:22.336Z,10.19
2022-12-26T11:45:22.333Z,10.15
2022-12-26T11:46:22.376Z,10.22
2022-12-26T11:47:22.305Z,10.16
2022-12-26T11:48:22.323Z,10.23
2022-12-26T11:49:22.287Z,10.20
2022-12-26T11:50:22.287Z,10.22
2022-12-26T11:51:22.290Z,10.30
2022-12-26T11:52:22.267Z,10.25
2022-12-26T11:53:22.296Z,10.28
2022-12-26T11:54:22.256Z,10.28
2022-12-26T11:55:22.255Z,10.26
2022-12-26T11:56:22.234Z,10.33
2022-12-26T11:57:22.369Z,10.35
2022-12-26T11:58:22.256Z,10.37
2022-12-26T11:59:22.222Z,10.42
2022-12-26T12:00:22.242Z,10.46
2022-12-26T12:01:22.228Z,10.40
2022-12-26T12:02:22.235Z,10.49
2022-12-26T12:03:22.294Z,10.49
2022-12-26T12:04:22.176Z,10.53
2022-12-26T12:05:22.180Z,10.38
2022-12-26T12:06:23.163Z,10.56
2022-12-26T12:07:22.156Z,10.60
2022-12-26T12:08:22.186Z,10.35
2022-12-26T12:09:22.148Z,10.46
2022-12-26T12:10:22.140Z,10.59
2022-12-26T12:11:22.120Z,10.56
2022-12-26T12:12:22.124Z,10.53
2022-12-26T12:13:22.143Z,10.48
2022-12-26T12:14:22.095Z,10.41
2022-12-26T12:15:22.102Z,10.59
2022-12-26T12:16:22.115Z,10.54
2022-12-26T12:17:22.077Z,10.56
2022-12-26T12:18:22.064Z,10.42
2022-12-26T12:19:22.089Z,10.54
2022-12-26T12:20:22.069Z,10.64
2022-12-26T12:21:22.080Z,10.59
2022-12-26T12:22:22.032Z,10.60
2022-12-26T12:23:22.025Z,10.60
2022-12-26T12:24:22.053Z,10.64
2022-12-26T12:25:22.017Z,10.59
2022-12-26T12:26:22.007Z,10.68
2022-12-26T12:27:21.992Z,10.68
2022-12-26T12:28:21.987Z,10.54
2022-12-26T12:29:22.011Z,10.54
2022-12-26T12:30:21.975Z,10.67
2022-12-26T12:31:22.036Z,10.72
2022-12-26T12:32:21.958Z,10.75
2022-12-26T12:33:21.991Z,10.76
2022-12-26T12:34:22.052Z,10.82
2022-12-26T12:35:21.934Z,10.74
2022-12-26T12:36:21.929Z,10.82
2022-12-26T12:37:21.929Z,10.89
2022-12-26T12:38:21.920Z,10.92
2022-12-26T12:39:21.943Z,10.97
2022-12-26T12:40:21.916Z,11.00
2022-12-26T12:41:21.924Z,11.08
2022-12-26T12:42:21.917Z,11.10
2022-12-26T12:43:21.879Z,11.05
2022-12-26T12:44:21.905Z,11.05
2022-12-26T12:45:21.880Z,11.04
2022-12-26T12:46:21.860Z,11.10
2022-12-26T12:47:21.874Z,11.04
2022-12-26T12:48:21.853Z,11.05
2022-12-26T12:49:21.874Z,11.15
2022-12-26T12:50:21.843Z,11.14
2022-12-26T12:51:21.851Z,11.25
2022-12-26T12:52:21.813Z,11.14
2022-12-26T12:53:21.814Z,11.23
2022-12-26T12:54:21.830Z,11.18
2022-12-26T12:55:21.853Z,11.26
2022-12-26T12:56:21.780Z,11.27
2022-12-26T12:57:22.805Z,11.33
2022-12-26T12:58:21.773Z,11.19
2022-12-26T12:59:21.794Z,11.25